sensor_id;sensor_type;location;lat;lon;timestamp;temperature;humidity
1205;DHT22;592;48.764;9.174;2024-03-08T08:00:30;3.70;99.90
1205;DHT22;592;48.764;9.174;2024-03-08T08:02:58;3.70;99.90
1205;DHT22;592;48.764;9.174;2024-03-08T08:05:25;3.90;99.90
1205;DHT22;592;48.764;9.174;2024-03-08T08:07:52;3.90;99.90
1205;DHT22;592;48.764;9.174;2024-03-08T08:10:19;4.00;99.90
1205;DHT22;592;48.764;9.174;2024-03-08T08:12:48;4.00;99.90
1205;DHT22;592;48.764;9.174;2024-03-08T09:08:13;4.60;99.90
1205;DHT22;592;48.764;9.174;2024-03-08T09:14:28;4.50;99.90
1205;DHT22;592;48.764;9.174;2024-03-08T09:33:06;4.90;99.90
1205;DHT22;592;48.764;9.174;2024-03-08T09:35:57;4.80;99.90
1205;DHT22;592;48.764;9.174;2024-03-08T09:38:29;4.90;99.90
1205;DHT22;592;48.764;9.174;2024-03-08T09:41:13;4.90;99.90
1205;DHT22;592;48.764;9.174;2024-03-08T10:04:04;5.50;99.90
1205;DHT22;592;48.764;9.174;2024-03-08T10:26:29;5.90;99.90
1205;DHT22;592;48.764;9.174;2024-03-08T10:28:56;6.00;99.90
1205;DHT22;592;48.764;9.174;2024-03-08T10:31:23;6.10;99.90
1205;DHT22;592;48.764;9.174;2024-03-08T10:33:53;6.30;99.90
1205;DHT22;592;48.764;9.174;2024-03-08T10:36:19;6.30;99.90
1205;DHT22;592;48.764;9.174;2024-03-08T10:38:46;6.30;99.90
1205;DHT22;592;48.764;9.174;2024-03-08T10:41:14;6.10;99.90
1205;DHT22;592;48.764;9.174;2024-03-08T10:44:02;6.00;99.90
1205;DHT22;592;48.764;9.174;2024-03-08T10:47:00;6.50;99.90
1205;DHT22;592;48.764;9.174;2024-03-08T10:49:30;6.50;99.90
1205;DHT22;592;48.764;9.174;2024-03-08T10:52:02;6.60;99.90
1205;DHT22;592;48.764;9.174;2024-03-08T10:55:05;6.70;99.90
1205;DHT22;592;48.764;9.174;2024-03-08T10:57:38;7.10;99.90
1205;DHT22;592;48.764;9.174;2024-03-08T11:00:08;7.50;99.90
1205;DHT22;592;48.764;9.174;2024-03-08T11:02:37;7.50;99.90
1205;DHT22;592;48.764;9.174;2024-03-08T11:05:04;7.40;99.90
1205;DHT22;592;48.764;9.174;2024-03-08T11:07:33;7.40;99.90
1205;DHT22;592;48.764;9.174;2024-03-08T11:10:02;7.30;99.90
1205;DHT22;592;48.764;9.174;2024-03-08T11:12:36;7.50;99.90
1205;DHT22;592;48.764;9.174;2024-03-08T11:17:47;7.70;99.90
1205;DHT22;592;48.764;9.174;2024-03-08T11:22:51;7.90;99.90
1205;DHT22;592;48.764;9.174;2024-03-08T11:25:35;8.20;99.90
1205;DHT22;592;48.764;9.174;2024-03-08T11:28:10;8.10;98.90
1205;DHT22;592;48.764;9.174;2024-03-08T11:30:43;7.90;99.80
1205;DHT22;592;48.764;9.174;2024-03-08T11:33:13;7.80;99.50
1205;DHT22;592;48.764;9.174;2024-03-08T11:35:40;8.10;99.90
1205;DHT22;592;48.764;9.174;2024-03-08T11:38:13;8.20;99.20
1205;DHT22;592;48.764;9.174;2024-03-08T11:40:42;8.30;99.90
1205;DHT22;592;48.764;9.174;2024-03-08T11:43:09;8.20;99.30
1205;DHT22;592;48.764;9.174;2024-03-08T11:45:36;7.80;99.00
1205;DHT22;592;48.764;9.174;2024-03-08T11:48:03;7.90;98.90
1205;DHT22;592;48.764;9.174;2024-03-08T11:50:32;7.40;98.90
1205;DHT22;592;48.764;9.174;2024-03-08T11:53:03;7.30;99.30
1205;DHT22;592;48.764;9.174;2024-03-08T11:55:30;7.50;99.20
1205;DHT22;592;48.764;9.174;2024-03-08T11:58:02;7.30;99.80
1205;DHT22;592;48.764;9.174;2024-03-08T12:00:30;7.60;99.90
1205;DHT22;592;48.764;9.174;2024-03-08T12:03:04;7.50;99.50
1205;DHT22;592;48.764;9.174;2024-03-08T12:05:33;7.20;99.50
1205;DHT22;592;48.764;9.174;2024-03-08T12:08:01;7.40;99.90
1205;DHT22;592;48.764;9.174;2024-03-08T12:10:28;7.40;99.30
1205;DHT22;592;48.764;9.174;2024-03-08T12:12:57;7.10;99.90
1205;DHT22;592;48.764;9.174;2024-03-08T12:15:25;7.20;99.90
1205;DHT22;592;48.764;9.174;2024-03-08T12:23:19;6.70;99.90
1205;DHT22;592;48.764;9.174;2024-03-08T12:25:46;6.80;99.90
1205;DHT22;592;48.764;9.174;2024-03-08T12:28:15;7.00;99.90
1205;DHT22;592;48.764;9.174;2024-03-08T12:30:47;7.20;99.90
1205;DHT22;592;48.764;9.174;2024-03-08T12:33:15;7.60;99.90
1205;DHT22;592;48.764;9.174;2024-03-08T12:35:52;7.50;99.60
1205;DHT22;592;48.764;9.174;2024-03-08T12:38:22;7.50;99.90
1205;DHT22;592;48.764;9.174;2024-03-08T12:40:50;7.60;99.60
1205;DHT22;592;48.764;9.174;2024-03-08T12:43:18;7.70;99.70
1205;DHT22;592;48.764;9.174;2024-03-08T12:45:46;7.70;99.40
1205;DHT22;592;48.764;9.174;2024-03-08T12:48:14;7.90;99.80
1205;DHT22;592;48.764;9.174;2024-03-08T12:50:40;8.00;99.90
1205;DHT22;592;48.764;9.174;2024-03-08T12:53:09;8.10;99.20
1205;DHT22;592;48.764;9.174;2024-03-08T12:55:37;8.10;99.20
1205;DHT22;592;48.764;9.174;2024-03-08T12:58:04;8.00;98.80
1205;DHT22;592;48.764;9.174;2024-03-08T13:04:03;7.80;99.10
1205;DHT22;592;48.764;9.174;2024-03-08T13:06:31;8.00;99.70
1205;DHT22;592;48.764;9.174;2024-03-08T13:08:58;8.10;99.20
1205;DHT22;592;48.764;9.174;2024-03-08T13:11:31;8.10;99.00
1205;DHT22;592;48.764;9.174;2024-03-08T13:14:02;8.40;99.30
1205;DHT22;592;48.764;9.174;2024-03-08T13:16:33;8.40;99.30
1205;DHT22;592;48.764;9.174;2024-03-08T13:19:00;8.50;99.00
1205;DHT22;592;48.764;9.174;2024-03-08T13:21:27;8.60;98.60
1205;DHT22;592;48.764;9.174;2024-03-08T13:23:55;8.50;98.80
1205;DHT22;592;48.764;9.174;2024-03-08T13:26:24;8.50;98.50
1205;DHT22;592;48.764;9.174;2024-03-08T13:28:57;8.20;98.00
1205;DHT22;592;48.764;9.174;2024-03-08T13:31:24;8.40;99.40
1205;DHT22;592;48.764;9.174;2024-03-08T13:33:50;8.50;99.00
1205;DHT22;592;48.764;9.174;2024-03-08T13:36:23;8.50;98.50
1205;DHT22;592;48.764;9.174;2024-03-08T13:38:54;8.40;98.30
1205;DHT22;592;48.764;9.174;2024-03-08T13:41:21;8.50;99.20
1205;DHT22;592;48.764;9.174;2024-03-08T13:43:50;10.10;98.10
1205;DHT22;592;48.764;9.174;2024-03-08T13:46:19;15.70;93.40
1205;DHT22;592;48.764;9.174;2024-03-08T13:48:46;13.80;90.00
1205;DHT22;592;48.764;9.174;2024-03-08T13:51:13;11.10;92.80
1205;DHT22;592;48.764;9.174;2024-03-08T13:53:42;9.60;94.70
1205;DHT22;592;48.764;9.174;2024-03-08T13:56:09;9.50;96.50
1205;DHT22;592;48.764;9.174;2024-03-08T13:58:37;9.60;96.50
1205;DHT22;592;48.764;9.174;2024-03-08T14:01:05;10.50;95.30
1205;DHT22;592;48.764;9.174;2024-03-08T14:03:38;13.80;94.40
1205;DHT22;592;48.764;9.174;2024-03-08T14:06:07;16.60;90.90
1205;DHT22;592;48.764;9.174;2024-03-08T14:08:34;17.40;86.10
1205;DHT22;592;48.764;9.174;2024-03-08T14:11:03;16.90;83.50
1205;DHT22;592;48.764;9.174;2024-03-08T14:13:40;18.60;87.10
1205;DHT22;592;48.764;9.174;2024-03-08T14:16:07;18.60;80.70
1205;DHT22;592;48.764;9.174;2024-03-08T14:18:36;17.40;78.50
1205;DHT22;592;48.764;9.174;2024-03-08T14:21:04;18.10;80.10
1205;DHT22;592;48.764;9.174;2024-03-08T14:23:33;17.40;79.00
1205;DHT22;592;48.764;9.174;2024-03-08T14:26:01;17.30;84.10
1205;DHT22;592;48.764;9.174;2024-03-08T14:28:28;17.00;79.30
1205;DHT22;592;48.764;9.174;2024-03-08T14:30:55;17.20;85.30
1205;DHT22;592;48.764;9.174;2024-03-08T14:33:23;17.80;82.50
1205;DHT22;592;48.764;9.174;2024-03-08T14:35:51;16.90;82.50
1205;DHT22;592;48.764;9.174;2024-03-08T14:38:20;16.50;80.00
1205;DHT22;592;48.764;9.174;2024-03-08T14:40:47;17.00;84.00
1205;DHT22;592;48.764;9.174;2024-03-08T14:43:14;17.00;84.50
1205;DHT22;592;48.764;9.174;2024-03-08T14:45:42;16.50;82.60
1205;DHT22;592;48.764;9.174;2024-03-08T14:48:13;17.10;85.90
1205;DHT22;592;48.764;9.174;2024-03-08T14:50:40;16.60;84.90
1205;DHT22;592;48.764;9.174;2024-03-08T14:53:09;16.90;87.90
1205;DHT22;592;48.764;9.174;2024-03-08T14:55:37;17.20;84.00
1205;DHT22;592;48.764;9.174;2024-03-08T14:58:04;16.50;80.20
1205;DHT22;592;48.764;9.174;2024-03-08T15:00:31;15.60;86.10
1205;DHT22;592;48.764;9.174;2024-03-08T15:03:00;14.90;86.40
1205;DHT22;592;48.764;9.174;2024-03-08T15:05:30;15.30;87.40
1205;DHT22;592;48.764;9.174;2024-03-08T15:07:58;15.10;84.70
1205;DHT22;592;48.764;9.174;2024-03-08T15:10:26;14.30;84.90
1205;DHT22;592;48.764;9.174;2024-03-08T15:12:55;14.80;89.90
1205;DHT22;592;48.764;9.174;2024-03-08T15:15:26;14.90;88.50
1205;DHT22;592;48.764;9.174;2024-03-08T15:17:55;15.10;88.70
1205;DHT22;592;48.764;9.174;2024-03-08T15:20:23;14.50;85.50
1205;DHT22;592;48.764;9.174;2024-03-08T15:22:51;14.30;85.80
1205;DHT22;592;48.764;9.174;2024-03-08T15:25:20;14.50;88.50
1205;DHT22;592;48.764;9.174;2024-03-08T15:27:51;14.70;87.80
1205;DHT22;592;48.764;9.174;2024-03-08T15:30:20;15.10;87.40
1205;DHT22;592;48.764;9.174;2024-03-08T15:32:49;15.50;89.10
1205;DHT22;592;48.764;9.174;2024-03-08T15:35:17;15.60;87.30
1205;DHT22;592;48.764;9.174;2024-03-08T15:37:44;15.00;84.40
1205;DHT22;592;48.764;9.174;2024-03-08T15:40:12;14.90;86.60
1205;DHT22;592;48.764;9.174;2024-03-08T15:42:47;15.00;88.10
1205;DHT22;592;48.764;9.174;2024-03-08T15:45:14;15.00;86.10
1205;DHT22;592;48.764;9.174;2024-03-08T15:47:43;14.90;86.00
1205;DHT22;592;48.764;9.174;2024-03-08T15:50:10;14.50;85.50
1205;DHT22;592;48.764;9.174;2024-03-08T15:52:39;14.40;86.90
1205;DHT22;592;48.764;9.174;2024-03-08T15:55:08;14.30;88.10
1205;DHT22;592;48.764;9.174;2024-03-08T15:57:42;14.40;86.60
1205;DHT22;592;48.764;9.174;2024-03-08T16:08:01;14.60;89.30
1205;DHT22;592;48.764;9.174;2024-03-08T16:10:51;14.50;87.90
1205;DHT22;592;48.764;9.174;2024-03-08T16:17:10;14.50;88.10
1205;DHT22;592;48.764;9.174;2024-03-08T16:19:38;14.10;88.60
1205;DHT22;592;48.764;9.174;2024-03-08T16:28:12;13.80;89.70
1205;DHT22;592;48.764;9.174;2024-03-08T16:30:57;13.40;87.80
1205;DHT22;592;48.764;9.174;2024-03-08T17:11:17;9.70;93.50
1205;DHT22;592;48.764;9.174;2024-03-08T17:13:48;9.50;93.90
1205;DHT22;592;48.764;9.174;2024-03-08T17:16:19;9.30;93.80
1205;DHT22;592;48.764;9.174;2024-03-08T17:19:08;9.30;94.20
1205;DHT22;592;48.764;9.174;2024-03-08T17:21:57;9.20;94.30
1205;DHT22;592;48.764;9.174;2024-03-08T17:24:54;9.10;94.40
1205;DHT22;592;48.764;9.174;2024-03-08T18:00:30;8.20;96.00
1205;DHT22;592;48.764;9.174;2024-03-08T18:03:40;8.20;96.00
1205;DHT22;592;48.764;9.174;2024-03-08T18:06:57;8.10;96.20
1205;DHT22;592;48.764;9.174;2024-03-08T18:10:10;8.00;96.40
1205;DHT22;592;48.764;9.174;2024-03-08T18:13:23;7.90;96.30
1205;DHT22;592;48.764;9.174;2024-03-08T18:19:45;7.80;96.50
1205;DHT22;592;48.764;9.174;2024-03-08T18:22:59;7.70;96.80
1205;DHT22;592;48.764;9.174;2024-03-08T18:25:49;7.70;96.90
1205;DHT22;592;48.764;9.174;2024-03-08T18:32:24;7.60;96.80
1205;DHT22;592;48.764;9.174;2024-03-08T19:23:11;7.00;95.90
1205;DHT22;592;48.764;9.174;2024-03-08T19:29:34;6.80;95.90
1205;DHT22;592;48.764;9.174;2024-03-08T19:32:45;6.70;95.90
1205;DHT22;592;48.764;9.174;2024-03-08T19:36:08;6.80;95.90
1205;DHT22;592;48.764;9.174;2024-03-08T21:21:19;5.30;98.00
1205;DHT22;592;48.764;9.174;2024-03-08T21:24:43;5.20;98.40
1205;DHT22;592;48.764;9.174;2024-03-08T21:28:19;5.20;97.90
1205;DHT22;592;48.764;9.174;2024-03-08T21:38:32;4.90;99.50
1205;DHT22;592;48.764;9.174;2024-03-08T21:42:00;5.00;98.80
1205;DHT22;592;48.764;9.174;2024-03-08T21:49:08;5.00;98.80
1205;DHT22;592;48.764;9.174;2024-03-08T21:52:36;4.90;98.70
1205;DHT22;592;48.764;9.174;2024-03-08T23:51:13;4.00;99.90
1205;DHT22;592;48.764;9.174;2024-03-08T23:56:59;3.40;99.90
1205;DHT22;592;48.764;9.174;2024-03-08T23:59:48;3.60;99.90
